createdAt,value
2022-11-11T00:03:22.534Z,6.19
2022-11-11T00:06:47.467Z,6.09
2022-11-11T00:10:08.996Z,6.07
2022-11-11T00:13:31.176Z,6.18
2022-11-11T00:17:11.016Z,6.30
2022-11-11T00:20:50.596Z,6.43
2022-11-11T00:24:43.082Z,6.55
2022-11-11T00:28:04.383Z,6.61
2022-11-11T00:31:25.349Z,6.53
2022-11-11T00:35:06.456Z,6.37
2022-11-11T00:38:46.166Z,6.05
2022-11-11T00:42:07.076Z,5.74
2022-11-11T00:45:28.530Z,5.54
2022-11-11T00:49:08.362Z,5.49
2022-11-11T00:52:29.489Z,5.45
2022-11-11T00:55:50.884Z,5.51
2022-11-11T00:59:11.750Z,5.56
2022-11-11T01:02:32.481Z,5.49
2022-11-11T01:05:54.260Z,5.51
2022-11-11T01:09:15.466Z,5.58
2022-11-11T01:12:36.641Z,5.62
2022-11-11T01:16:08.620Z,5.49
2022-11-11T01:19:29.690Z,5.26
2022-11-11T01:22:50.394Z,5.13
2022-11-11T01:26:24.817Z,4.99
2022-11-11T01:29:50.232Z,4.93
2022-11-11T01:33:12.001Z,5.02
2022-11-11T01:36:33.356Z,4.96
2022-11-11T01:39:54.623Z,4.94
2022-11-11T01:43:19.507Z,4.94
2022-11-11T01:46:56.864Z,4.92
2022-11-11T01:50:17.754Z,4.84
2022-11-11T01:53:39.022Z,4.84
2022-11-11T01:57:08.064Z,4.79
2022-11-11T02:00:29.357Z,4.73
2022-11-11T02:04:11.038Z,4.67
2022-11-11T02:07:33.335Z,4.58
2022-11-11T02:10:54.771Z,4.46
2022-11-11T02:14:34.937Z,4.36
2022-11-11T02:17:55.940Z,4.30
2022-11-11T02:21:23.989Z,4.15
2022-11-11T02:24:46.285Z,4.19
2022-11-11T02:28:08.264Z,4.19
2022-11-11T02:31:30.348Z,4.15
2022-11-11T02:34:51.737Z,4.27
2022-11-11T02:38:13.266Z,4.32
2022-11-11T02:41:53.405Z,4.76
2022-11-11T02:45:14.738Z,5.05
2022-11-11T02:48:35.855Z,5.28
2022-11-11T02:51:57.094Z,5.18
2022-11-11T02:55:18.437Z,5.19
2022-11-11T02:58:39.564Z,5.08
2022-11-11T03:02:00.757Z,5.03
2022-11-11T03:05:22.280Z,4.95
2022-11-11T03:08:43.671Z,4.93
2022-11-11T03:12:05.372Z,4.88
2022-11-11T03:15:26.472Z,4.92
2022-11-11T03:18:47.990Z,4.93
2022-11-11T03:25:51.334Z,5.06
2022-11-11T03:29:15.421Z,5.12
2022-11-11T03:32:36.242Z,5.25
2022-11-11T03:35:56.947Z,5.32
2022-11-11T03:39:17.554Z,5.32
2022-11-11T03:42:38.919Z,5.28
2022-11-11T03:46:04.545Z,5.32
2022-11-11T03:49:25.536Z,5.29
2022-11-11T03:52:46.441Z,5.38
2022-11-11T03:56:07.567Z,5.32
2022-11-11T03:59:28.503Z,5.27
2022-11-11T04:03:08.166Z,5.44
2022-11-11T04:06:47.911Z,5.57
2022-11-11T04:10:24.647Z,5.73
2022-11-11T04:14:05.637Z,5.77
2022-11-11T04:17:26.446Z,5.79
2022-11-11T04:21:05.776Z,5.74
2022-11-11T04:24:45.148Z,5.70
2022-11-11T04:28:24.516Z,5.70
2022-11-11T04:32:04.123Z,5.52
2022-11-11T04:35:26.778Z,5.36
2022-11-11T04:39:06.557Z,5.22
2022-11-11T04:42:28.100Z,5.04
2022-11-11T04:45:49.065Z,4.92
2022-11-11T04:49:09.880Z,4.86
2022-11-11T04:52:30.884Z,4.75
2022-11-11T04:56:10.218Z,4.67
2022-11-11T04:59:31.262Z,4.56
2022-11-11T05:03:14.990Z,4.52
2022-11-11T05:06:59.223Z,4.33
2022-11-11T05:10:20.504Z,4.16
2022-11-11T05:14:00.396Z,3.99
2022-11-11T05:17:40.115Z,3.87
2022-11-11T05:21:19.962Z,3.76
2022-11-11T05:24:59.480Z,3.73
2022-11-11T05:28:20.588Z,3.63
2022-11-11T05:31:41.313Z,3.53
2022-11-11T05:35:03.068Z,3.46
2022-11-11T05:38:24.210Z,3.44
2022-11-11T05:41:45.308Z,3.47
2022-11-11T05:45:06.631Z,3.57
2022-11-11T05:48:28.029Z,3.60
2022-11-11T05:51:49.062Z,3.57
2022-11-11T05:55:09.908Z,3.52
2022-11-11T05:58:30.950Z,3.56
2022-11-11T06:01:52.212Z,3.51
2022-11-11T06:05:13.351Z,3.54
2022-11-11T06:08:34.002Z,3.63
2022-11-11T06:11:54.800Z,3.63
2022-11-11T06:18:37.531Z,3.71
2022-11-11T06:21:59.089Z,3.82
2022-11-11T06:25:38.524Z,3.93
2022-11-11T06:32:21.427Z,4.17
2022-11-11T06:39:06.416Z,4.35
2022-11-11T06:42:27.275Z,4.48
2022-11-11T06:45:52.284Z,4.67
2022-11-11T06:52:37.871Z,5.29
2022-11-11T06:55:59.001Z,5.71
2022-11-11T06:59:19.661Z,6.75
2022-11-11T07:02:41.819Z,7.95
2022-11-11T07:06:04.120Z,8.76
2022-11-11T07:09:45.037Z,9.65
2022-11-11T07:13:06.765Z,10.80
2022-11-11T07:16:27.613Z,11.61
2022-11-11T07:19:49.353Z,11.12
2022-11-11T07:23:11.272Z,10.23
2022-11-11T07:26:32.327Z,10.26
2022-11-11T07:29:53.601Z,11.11
2022-11-11T07:33:14.818Z,11.91
2022-11-11T07:36:36.006Z,12.74
2022-11-11T07:39:56.972Z,13.32
2022-11-11T07:43:17.980Z,13.94
2022-11-11T07:46:39.239Z,13.97
2022-11-11T07:50:06.207Z,13.59
2022-11-11T07:53:29.124Z,13.13
2022-11-11T07:56:50.113Z,13.88
2022-11-11T08:00:13.689Z,14.32
2022-11-11T08:03:34.772Z,14.70
2022-11-11T08:06:55.597Z,15.69
2022-11-11T08:10:17.753Z,14.85
2022-11-11T08:13:42.175Z,16.23
2022-11-11T08:17:03.223Z,13.72
2022-11-11T08:20:24.706Z,13.41
2022-11-11T08:24:36.527Z,12.55
2022-11-11T08:27:27.185Z,12.69
2022-11-11T08:30:48.950Z,13.91
2022-11-11T08:34:10.307Z,13.21
2022-11-11T08:37:33.780Z,13.01
2022-11-11T08:40:56.827Z,12.34
2022-11-11T08:44:18.383Z,11.93
2022-11-11T08:47:39.776Z,11.31
2022-11-11T08:51:01.292Z,11.06
2022-11-11T08:54:22.061Z,11.07
2022-11-11T08:57:42.939Z,10.86
2022-11-11T09:01:04.486Z,10.79
2022-11-11T09:08:08.112Z,11.08
2022-11-11T09:11:36.201Z,11.23
2022-11-11T09:14:57.216Z,10.94
2022-11-11T09:18:18.249Z,11.04
2022-11-11T09:21:39.739Z,11.24
2022-11-11T09:25:01.114Z,11.28
2022-11-11T09:28:22.082Z,11.29
2022-11-11T09:31:46.381Z,11.41
2022-11-11T09:35:08.241Z,11.25
2022-11-11T09:38:30.133Z,11.31
2022-11-11T09:42:06.775Z,11.37
2022-11-11T09:45:31.071Z,11.46
2022-11-11T09:49:20.371Z,11.45
2022-11-11T09:52:50.684Z,11.97
2022-11-11T09:56:30.256Z,11.68
2022-11-11T09:59:55.820Z,12.11
2022-11-11T10:03:19.656Z,12.09
2022-11-11T10:06:40.654Z,11.95
2022-11-11T10:10:46.818Z,11.74
2022-11-11T10:14:07.999Z,11.81
2022-11-11T10:17:34.185Z,11.83
2022-11-11T10:20:56.544Z,11.80
2022-11-11T10:24:37.701Z,11.75
2022-11-11T10:28:03.357Z,11.73
2022-11-11T10:31:25.705Z,11.68
2022-11-11T10:34:47.101Z,11.50
2022-11-11T10:38:11.139Z,11.55
2022-11-11T10:41:34.293Z,11.51
2022-11-11T10:45:03.937Z,11.48
2022-11-11T10:48:43.149Z,11.47
2022-11-11T10:52:16.204Z,11.46
2022-11-11T10:55:40.668Z,11.43
2022-11-11T10:59:05.760Z,11.46
2022-11-11T11:02:30.988Z,11.62
2022-11-11T11:05:58.091Z,11.70
2022-11-11T11:09:28.846Z,11.78
2022-11-11T11:13:12.104Z,11.71
2022-11-11T11:16:36.060Z,11.72
2022-11-11T11:20:20.681Z,11.84
2022-11-11T11:23:43.457Z,11.98
2022-11-11T11:27:07.741Z,12.26
2022-11-11T11:30:28.849Z,12.45
2022-11-11T11:33:52.136Z,12.50
2022-11-11T11:37:13.562Z,12.69
2022-11-11T11:40:58.056Z,12.68
2022-11-11T11:44:36.270Z,12.42
2022-11-11T11:52:12.364Z,12.19
2022-11-11T11:55:38.054Z,12.05
2022-11-11T11:59:19.129Z,12.07
2022-11-11T12:02:57.888Z,12.07
2022-11-11T12:06:39.731Z,12.23
2022-11-11T12:10:21.109Z,12.26
2022-11-11T12:14:07.497Z,12.37
2022-11-11T12:18:01.262Z,12.38
2022-11-11T12:21:24.645Z,12.33
2022-11-11T12:25:13.352Z,12.37
2022-11-11T12:28:55.926Z,12.53
2022-11-11T12:32:22.909Z,12.71
2022-11-11T12:35:55.898Z,12.67
2022-11-11T12:39:30.193Z,12.48
2022-11-11T12:43:08.949Z,12.20
2022-11-11T12:46:32.889Z,12.06
2022-11-11T12:50:19.370Z,11.89
2022-11-11T12:54:14.944Z,11.68
2022-11-11T12:57:41.797Z,11.45
2022-11-11T13:01:33.779Z,11.33
2022-11-11T13:05:14.627Z,11.30
2022-11-11T13:09:12.299Z,11.25
2022-11-11T13:12:42.813Z,11.23
2022-11-11T13:16:04.037Z,11.18
2022-11-11T13:19:41.779Z,11.05
2022-11-11T13:23:02.831Z,11.22
2022-11-11T13:26:38.667Z,11.00
2022-11-11T13:30:11.915Z,10.88
2022-11-11T13:33:40.235Z,10.87
2022-11-11T13:37:04.540Z,10.80
2022-11-11T13:40:36.075Z,10.83
2022-11-11T13:44:03.394Z,10.85
2022-11-11T13:47:29.978Z,10.75
2022-11-11T13:50:51.834Z,10.65
2022-11-11T13:54:25.338Z,10.71
2022-11-11T13:57:50.221Z,10.74
2022-11-11T14:01:11.980Z,10.59
2022-11-11T14:05:01.980Z,10.45
2022-11-11T14:08:52.880Z,10.48
2022-11-11T14:12:34.595Z,10.36
2022-11-11T14:15:55.817Z,10.32
2022-11-11T14:19:16.827Z,10.26
2022-11-11T14:22:37.646Z,10.14
2022-11-11T14:26:14.135Z,10.04
2022-11-11T14:30:08.260Z,10.01
2022-11-11T14:33:50.165Z,9.98
2022-11-11T14:37:40.616Z,9.93
2022-11-11T14:41:43.707Z,9.90
2022-11-11T14:45:06.388Z,9.77
2022-11-11T14:48:52.405Z,9.61
2022-11-11T14:52:35.846Z,9.50
2022-11-11T14:55:56.750Z,9.43
2022-11-11T14:59:19.345Z,9.43
2022-11-11T15:02:57.477Z,9.27
2022-11-11T15:06:38.214Z,9.18
2022-11-11T15:10:08.263Z,9.11
2022-11-11T15:13:32.189Z,9.00
2022-11-11T15:17:34.172Z,8.92
2022-11-11T15:21:08.086Z,8.85
2022-11-11T15:25:18.140Z,8.79
2022-11-11T15:28:57.203Z,8.77
2022-11-11T15:32:26.686Z,8.74
2022-11-11T15:36:15.494Z,8.60
2022-11-11T15:39:52.002Z,8.48
2022-11-11T15:43:21.523Z,8.39
2022-11-11T15:46:47.894Z,8.28
2022-11-11T15:50:27.991Z,8.23
2022-11-11T15:53:49.850Z,8.18
2022-11-11T15:57:35.044Z,8.18
2022-11-11T16:00:58.880Z,8.09
2022-11-11T16:04:53.763Z,7.98
2022-11-11T16:08:09.003Z,8.11
2022-11-11T16:11:29.885Z,7.86
2022-11-11T16:14:53.257Z,7.77
2022-11-11T16:18:30.188Z,7.66
2022-11-11T16:22:14.211Z,7.54
2022-11-11T16:25:35.341Z,7.43
2022-11-11T16:28:57.892Z,7.38
2022-11-11T16:32:28.861Z,7.32
2022-11-11T16:35:49.896Z,7.23
2022-11-11T16:39:29.549Z,7.15
2022-11-11T16:42:50.250Z,7.07
2022-11-11T16:46:15.285Z,7.03
2022-11-11T16:49:43.330Z,7.03
2022-11-11T16:53:05.011Z,7.08
2022-11-11T16:56:29.698Z,7.11
2022-11-11T17:00:06.546Z,7.16
2022-11-11T17:03:28.464Z,7.20
2022-11-11T17:06:55.701Z,7.32
2022-11-11T17:10:19.959Z,7.48
2022-11-11T17:13:42.868Z,7.50
2022-11-11T17:17:06.655Z,7.49
2022-11-11T17:20:30.712Z,7.47
2022-11-11T17:23:53.081Z,7.40
2022-11-11T17:27:14.363Z,7.35
2022-11-11T17:30:37.944Z,7.27
2022-11-11T17:33:59.330Z,7.34
2022-11-11T17:37:20.394Z,7.24
2022-11-11T17:40:45.814Z,7.21
2022-11-11T17:44:07.142Z,7.11
2022-11-11T17:47:28.240Z,7.01
2022-11-11T17:50:49.435Z,6.95
2022-11-11T17:54:10.344Z,6.90
2022-11-11T17:57:31.714Z,7.04
2022-11-11T18:00:54.548Z,7.08
2022-11-11T18:04:15.686Z,7.22
2022-11-11T18:07:40.097Z,7.32
2022-11-11T18:11:08.254Z,7.36
2022-11-11T18:14:29.229Z,7.35
2022-11-11T18:17:50.346Z,7.23
2022-11-11T18:21:11.885Z,7.06
2022-11-11T18:24:33.169Z,6.89
2022-11-11T18:27:54.867Z,6.75
2022-11-11T18:31:15.992Z,6.61
2022-11-11T18:34:37.410Z,6.47
2022-11-11T18:37:58.191Z,6.35
2022-11-11T18:41:20.328Z,6.29
2022-11-11T18:44:41.176Z,6.15
2022-11-11T18:48:02.320Z,6.27
2022-11-11T18:51:24.556Z,6.22
2022-11-11T18:54:45.405Z,6.15
2022-11-11T18:58:06.630Z,6.13
2022-11-11T19:01:30.559Z,6.06
2022-11-11T19:04:52.021Z,5.99
2022-11-11T19:08:13.351Z,5.93
2022-11-11T19:11:38.046Z,5.84
2022-11-11T19:14:59.343Z,5.76
2022-11-11T19:18:20.927Z,5.67
2022-11-11T19:21:42.616Z,5.53
2022-11-11T19:25:04.903Z,5.53
2022-11-11T19:28:25.668Z,5.53
2022-11-11T19:31:46.679Z,5.44
2022-11-11T19:35:07.981Z,5.36
2022-11-11T19:38:29.132Z,5.28
2022-11-11T19:41:50.371Z,5.21
2022-11-11T19:45:11.463Z,5.16
2022-11-11T19:48:33.308Z,5.05
2022-11-11T19:51:54.778Z,4.97
2022-11-11T19:55:15.839Z,4.92
2022-11-11T19:58:37.775Z,4.95
2022-11-11T20:01:58.855Z,4.87
2022-11-11T20:05:20.051Z,4.84
2022-11-11T20:08:41.363Z,4.82
2022-11-11T20:12:03.056Z,4.75
2022-11-11T20:15:24.407Z,4.75
2022-11-11T20:18:45.689Z,4.86
2022-11-11T20:22:09.234Z,4.81
2022-11-11T20:25:30.394Z,4.84
2022-11-11T20:28:58.282Z,4.85
2022-11-11T20:32:19.731Z,4.84
2022-11-11T20:35:40.667Z,4.82
2022-11-11T20:39:01.633Z,4.97
2022-11-11T20:42:22.858Z,4.84
2022-11-11T20:45:43.729Z,4.74
2022-11-11T20:49:05.294Z,4.68
2022-11-11T20:52:26.614Z,4.63
2022-11-11T20:55:47.804Z,4.54
2022-11-11T20:59:09.090Z,4.52
2022-11-11T21:02:30.379Z,4.48
2022-11-11T21:05:51.499Z,4.40
2022-11-11T21:09:12.595Z,4.33
2022-11-11T21:12:33.933Z,4.32
2022-11-11T21:16:19.232Z,4.26
2022-11-11T21:19:40.681Z,4.21
2022-11-11T21:23:01.922Z,4.15
2022-11-11T21:26:22.921Z,4.07
2022-11-11T21:29:43.997Z,3.98
2022-11-11T21:33:08.714Z,3.97
2022-11-11T21:36:32.303Z,3.96
2022-11-11T21:39:53.337Z,3.89
2022-11-11T21:43:14.566Z,3.83
2022-11-11T21:46:36.846Z,3.75
2022-11-11T21:49:58.321Z,3.67
2022-11-11T21:53:19.476Z,3.63
2022-11-11T21:56:40.190Z,3.67
2022-11-11T22:00:01.010Z,3.63
2022-11-11T22:03:21.742Z,3.67
2022-11-11T22:06:42.571Z,3.59
2022-11-11T22:10:04.330Z,3.55
2022-11-11T22:13:25.485Z,3.65
2022-11-11T22:16:46.159Z,3.73
2022-11-11T22:20:07.403Z,3.75
2022-11-11T22:23:28.587Z,4.04
2022-11-11T22:26:50.450Z,4.10
2022-11-11T22:30:11.582Z,4.01
2022-11-11T22:33:32.426Z,3.91
2022-11-11T22:36:53.191Z,3.88
2022-11-11T22:40:14.507Z,3.93
2022-11-11T22:47:22.983Z,4.90
2022-11-11T22:50:43.781Z,4.70
2022-11-11T22:54:06.327Z,4.67
2022-11-11T22:57:30.787Z,4.55
2022-11-11T23:00:52.020Z,4.50
2022-11-11T23:04:13.611Z,4.63
2022-11-11T23:07:34.529Z,4.73
2022-11-11T23:10:55.750Z,4.48
2022-11-11T23:14:16.640Z,4.59
2022-11-11T23:17:37.560Z,4.51
2022-11-11T23:20:59.419Z,4.39
2022-11-11T23:24:20.350Z,4.27
2022-11-11T23:27:41.292Z,4.24
2022-11-11T23:31:14.060Z,4.20
2022-11-11T23:34:34.834Z,4.08
2022-11-11T23:37:55.664Z,4.02
2022-11-11T23:41:16.562Z,3.95
2022-11-11T23:44:37.465Z,4.07
2022-11-11T23:47:58.271Z,3.95
2022-11-11T23:51:19.342Z,3.85
2022-11-11T23:54:40.454Z,3.77
2022-11-11T23:58:01.143Z,3.70
